Aeroporto :
LOGIN :

Iscrizione | Disclaimer

   EN    FR    IT 

 










Sommario :    VFR   VFR Marginale   IFR   IFR Intensivo   IFR Molto Intensivo
Visibilità : 
Base nubi : 
>= 8 km
>= 3000ft
5 / 8 km
1000 / 3000 ft
1500m / 5 km
500 / 1000 ft
800 / 1500m
200 / 500 ft
< 800m
< 200 ft
Simboli :   Temporali  Nebbia  Neve Forte  Precipitazioni Forti  Vento > 20 kt
SIGMETs :   Varie  Temporali  Ghiacco  Turbolenza  Onda orograficha  Ceneri Vulcaniche






- Altitudine del aeroporto : 461 ft
- Codice IATA : WIE


ETOU - Wiesbaden Army

ULTIMO METAR :
  • 090556Z AUTO 34003KT 9999 CLR 21/08 A3026 RMK AO2 SLP243 T02090082 10209 20166 52013 $

METARs OBSOLETI :
  • 090456Z AUTO 33005KT 9999 CLR 17/07 A3025 RMK AO2 SLP241 T01740074

TAF TAF ETOU
Valido dal 09 a 04 ore il 10 a 10 ore UTC


090400Z 0904/1010 03009KT 9999 SKC QNH3023INS
BECMG 0910/0911 07006KT 9999 FEW050 QNH3024INS
BECMG 0916/0917 VRB06KT 9999 SCT080 QNH3024INS
BECMG 0922/0923 05008KT 9999 SKC QNH3029INS TX28/0913Z TN18/0904Z



MetMap, La meteo Aeronautica in un colpo d'occhio ! - Copyright ORBIFLY Dicembre 2007 - Disclaimer

ORBIFLY MET'MAP TEAM :

Programmazione e sviluppo : Alexandra Zaïnal
Concezione : Baudouin d'Aumeries
Supporto tecnico e logistico : Manuel Goepfert
Aiuto : Marc-Olivier Méhu
Aiuto per la traduzione : Arnaldo La Scala




FONTI E CREDITI :

   NOAA